Time;durP1;ratioP1;P1;durP2;ratioP2;P2;SDS_P1;SDS_P2;PMS_P1;PMS_P2;Temp;Humidity;BMP_temperature;BMP_pressure;BME280_temperature;BME280_humidity;BME280_pressure;Samples;Min_cycle;Max_cycle;Signal;HPM_P1;HPM_P2
2022/09/24 00:02:46;;;;;;;1.20;1.10;;;;;;;18.84;57.19;96366.28;10603615;27;20043;-29
2022/09/24 00:07:46;;;;;;;1.90;1.02;;;;;;;18.88;57.47;96378.09;10595787;27;20471;-29
2022/09/24 00:12:47;;;;;;;2.17;1.27;;;;;;;18.89;57.54;96368.78;10588519;27;20452;-29
2022/09/24 00:17:47;;;;;;;3.53;1.23;;;;;;;18.89;57.32;96363.69;10580613;27;20402;-28
2022/09/24 00:22:47;;;;;;;2.63;1.03;;;;;;;18.89;57.42;96361.16;10588263;27;20444;-29
2022/09/24 00:27:47;;;;;;;2.50;1.13;;;;;;;18.87;57.38;96357.81;10579020;27;20482;-29
2022/09/24 00:32:48;;;;;;;1.70;1.17;;;;;;;18.86;57.36;96351.91;10587222;27;20118;-29
2022/09/24 00:37:48;;;;;;;1.00;0.80;;;;;;;18.86;57.27;96353.59;10589913;27;20047;-29
2022/09/24 00:42:48;;;;;;;1.83;1.17;;;;;;;18.86;57.49;96351.91;10588273;27;20036;-29
2022/09/24 00:47:50;;;;;;;1.90;1.23;;;;;;;18.87;57.21;96345.13;10586468;27;20123;-29
2022/09/24 00:52:55;;;;;;;2.35;1.10;;;;;;;18.89;57.63;96338.34;10569145;27;20043;-29
2022/09/24 00:57:59;;;;;;;2.20;1.00;;;;;;;18.88;57.33;96327.38;10589077;27;20483;-29
2022/09/24 01:03:13;;;;;;;2.03;1.38;;;;;;;18.89;57.32;96323.97;10598651;27;20050;-30
2022/09/24 01:08:15;;;;;;;3.42;1.30;;;;;;;18.82;57.37;96316.44;10588105;27;20023;-29
2022/09/24 01:13:28;;;;;;;2.50;1.00;;;;;;;18.85;57.36;96332.44;10583739;27;20038;-29
2022/09/24 01:18:37;;;;;;;2.22;1.00;;;;;;;18.87;57.28;96314.69;10588991;28;20480;-29
2022/09/24 01:23:40;;;;;;;2.58;1.02;;;;;;;18.86;57.20;96310.47;10595072;28;20060;-29
2022/09/24 01:28:56;;;;;;;1.90;1.02;;;;;;;18.84;57.37;96325.69;10584708;28;20043;-29
2022/09/24 01:34:00;;;;;;;2.60;1.30;;;;;;;18.85;57.29;96329.91;10570081;28;20488;-29
2022/09/24 01:39:04;;;;;;;1.90;1.20;;;;;;;18.87;57.30;96314.69;10597035;28;20320;-29
2022/09/24 01:44:06;;;;;;;1.55;0.95;;;;;;;18.86;57.45;96305.41;10578637;28;20387;-30
2022/09/24 01:49:07;;;;;;;2.20;1.30;;;;;;;18.85;57.44;96294.41;10586200;28;20027;-29
2022/09/24 01:54:15;;;;;;;1.65;1.23;;;;;;;18.87;57.38;96307.94;10584187;28;20028;-29
2022/09/24 01:59:23;;;;;;;3.65;1.25;;;;;;;18.86;57.30;96310.47;10586305;28;20703;-29
2022/09/24 02:04:26;;;;;;;1.50;1.13;;;;;;;18.87;57.13;96294.38;10593855;28;20442;-30
2022/09/24 02:09:30;;;;;;;2.70;1.33;;;;;;;18.85;57.42;96298.63;10587605;27;20035;-29
2022/09/24 02:14:35;;;;;;;4.13;1.35;;;;;;;18.78;57.31;96279.25;10589547;27;20323;-31
2022/09/24 02:19:38;;;;;;;1.50;1.20;;;;;;;18.84;57.42;96292.72;10595904;27;20027;-29
2022/09/24 02:24:48;;;;;;;2.05;1.20;;;;;;;18.81;57.65;96300.34;10582637;27;20134;-29
2022/09/24 02:29:49;;;;;;;2.17;1.05;;;;;;;18.86;57.63;96307.94;10596633;27;20376;-28
2022/09/24 02:34:55;;;;;;;1.70;1.05;;;;;;;18.87;57.57;96319.75;10582283;27;20035;-29
2022/09/24 02:39:56;;;;;;;1.50;0.95;;;;;;;18.85;57.56;96306.25;10589657;27;20365;-29
2022/09/24 02:44:58;;;;;;;1.73;1.20;;;;;;;18.87;57.48;96294.38;10582654;27;20043;-29
2022/09/24 02:49:59;;;;;;;1.40;0.88;;;;;;;18.83;57.40;96303.72;10589596;27;20289;-29
2022/09/24 02:54:59;;;;;;;1.30;1.00;;;;;;;18.86;56.99;96328.22;10602928;27;20030;-29
2022/09/24 02:59:59;;;;;;;3.07;1.00;;;;;;;18.84;57.39;96315.53;10594365;27;20024;-29
2022/09/24 03:05:00;;;;;;;2.67;0.98;;;;;;;18.83;57.86;96307.97;10579915;27;20479;-31
2022/09/24 03:10:00;;;;;;;2.47;0.90;;;;;;;18.82;57.34;96313.91;10599647;27;20031;-29
2022/09/24 03:15:01;;;;;;;1.50;1.10;;;;;;;18.85;57.51;96318.94;10590882;27;20551;-28
2022/09/24 03:20:01;;;;;;;1.80;0.80;;;;;;;18.85;57.61;96316.41;10579033;27;20020;-29
2022/09/24 03:25:02;;;;;;;2.78;1.10;;;;;;;18.87;57.38;96319.75;10587284;27;20032;-29
2022/09/24 03:35:21;;;;;;;1.48;0.90;;;;;;;18.84;57.35;96304.56;10589574;27;20551;-29
2022/09/24 03:40:22;;;;;;;1.30;0.90;;;;;;;18.83;57.37;96306.25;10581565;27;20095;-29
2022/09/24 03:45:23;;;;;;;1.95;0.88;;;;;;;18.71;57.11;96292.81;10584530;27;20467;-29
2022/09/24 03:50:23;;;;;;;2.57;1.07;;;;;;;18.81;57.51;96314.72;10590552;27;20122;-30
2022/09/24 03:55:23;;;;;;;2.33;1.00;;;;;;;18.82;57.42;96308.81;10589705;27;20040;-29
2022/09/24 04:00:24;;;;;;;2.17;1.00;;;;;;;18.82;57.58;96293.59;10589087;27;20407;-30
2022/09/24 04:05:24;;;;;;;2.67;1.05;;;;;;;18.83;57.69;96285.13;10589624;27;20059;-29
2022/09/24 04:10:25;;;;;;;1.30;0.87;;;;;;;18.75;57.54;96274.22;10588511;27;20114;-29
2022/09/24 04:15:26;;;;;;;1.50;0.77;;;;;;;18.85;57.53;96281.72;10593177;27;20760;-30
2022/09/24 04:20:27;;;;;;;1.67;1.20;;;;;;;18.84;57.36;96284.28;10584901;27;20035;-29
2022/09/24 04:25:29;;;;;;;1.90;1.00;;;;;;;18.85;57.40;96271.56;10586758;27;21425;-29
2022/09/24 04:30:31;;;;;;;4.03;0.70;;;;;;;18.85;57.45;96273.28;10596277;27;20117;-29
2022/09/24 04:35:37;;;;;;;1.88;1.08;;;;;;;18.84;57.45;96269.06;10579269;27;20118;-30
2022/09/24 04:40:38;;;;;;;2.22;0.82;;;;;;;18.85;57.24;96273.28;10580891;27;20064;-30
2022/09/24 04:45:39;;;;;;;1.98;1.00;;;;;;;18.81;57.58;96280.06;10585605;27;20524;-29
2022/09/24 04:50:39;;;;;;;2.50;1.80;;;;;;;18.84;57.60;96274.13;10592147;27;20069;-31
2022/09/24 04:55:40;;;;;;;1.20;0.90;;;;;;;18.84;57.77;96276.69;10591475;27;20851;-29
2022/09/24 05:00:42;;;;;;;2.67;1.08;;;;;;;18.84;57.76;96279.22;10586758;27;20061;-29
2022/09/24 05:05:42;;;;;;;2.72;1.02;;;;;;;18.86;57.35;96277.50;10588456;27;20495;-30
2022/09/24 05:10:42;;;;;;;0.87;0.73;;;;;;;18.83;57.72;96273.28;10588782;27;20101;-29
2022/09/24 05:15:43;;;;;;;1.17;0.97;;;;;;;18.82;57.83;96271.59;10585135;27;20059;-29
2022/09/24 05:20:43;;;;;;;1.63;0.83;;;;;;;18.83;57.64;96268.22;10595350;28;20462;-29
2022/09/24 05:31:02;;;;;;;1.38;0.95;;;;;;;18.80;58.54;96285.16;10589732;28;20312;-29
2022/09/24 05:36:03;;;;;;;0.70;0.70;;;;;;;18.80;57.70;96283.47;10570236;28;20468;-30
2022/09/24 05:41:03;;;;;;;2.20;1.00;;;;;;;18.82;57.94;96286.81;10581848;28;20048;-29
2022/09/24 05:46:05;;;;;;;3.37;1.80;;;;;;;18.83;58.01;96285.13;10590082;27;20032;-28
2022/09/24 05:51:05;;;;;;;1.67;1.38;;;;;;;18.87;57.94;96289.31;10595986;27;20294;-29
2022/09/24 05:56:06;;;;;;;2.00;1.30;;;;;;;18.84;57.63;96299.50;10598636;27;20042;-29
2022/09/24 06:01:06;;;;;;;1.85;1.27;;;;;;;18.84;57.60;96294.44;10594025;27;20215;-29
2022/09/24 06:06:07;;;;;;;2.00;1.00;;;;;;;18.85;57.50;96293.56;10584749;27;20385;-28
2022/09/24 06:11:08;;;;;;;1.80;1.48;;;;;;;18.84;57.66;96297.78;10592675;27;20286;-30
2022/09/24 06:16:11;;;;;;;1.00;1.00;;;;;;;18.82;57.45;96298.69;10602582;27;20036;-29
2022/09/24 06:21:14;;;;;;;1.35;1.25;;;;;;;18.81;57.56;96304.56;10583241;27;20180;-29
2022/09/24 06:26:14;;;;;;;1.80;1.40;;;;;;;18.82;57.45;96306.28;10580883;27;20045;-29
2022/09/24 06:31:15;;;;;;;1.97;1.77;;;;;;;18.82;58.41;96309.66;10598748;27;20032;-29
2022/09/24 06:36:15;;;;;;;2.60;1.67;;;;;;;18.80;58.22;96302.91;10580872;27;20092;-29
2022/09/24 06:41:16;;;;;;;1.60;1.23;;;;;;;18.86;58.19;96318.94;10589178;27;20303;-28
2022/09/24 06:46:16;;;;;;;2.72;1.02;;;;;;;18.85;57.75;96311.31;10597833;27;20049;-31
2022/09/24 06:51:17;;;;;;;1.85;1.25;;;;;;;18.85;57.50;96301.19;10586519;27;20031;-29
2022/09/24 06:56:17;;;;;;;8.33;1.97;;;;;;;18.87;57.56;96315.53;10584917;27;20398;-30
2022/09/24 07:01:17;;;;;;;5.47;2.10;;;;;;;18.87;57.33;96305.38;10578031;27;20112;-29
2022/09/24 07:06:18;;;;;;;7.57;2.50;;;;;;;18.89;57.90;96308.75;10591400;27;20105;-30
2022/09/24 07:11:18;;;;;;;5.50;2.07;;;;;;;18.89;57.27;96312.97;10584731;27;20571;-29
2022/09/24 07:16:19;;;;;;;4.93;1.90;;;;;;;18.85;57.12;96316.41;10581794;27;20294;-30
2022/09/24 07:21:19;;;;;;;4.50;3.57;;;;;;;18.87;58.53;96315.53;10584702;27;20039;-30
2022/09/24 07:26:19;;;;;;;8.13;3.90;;;;;;;18.88;58.81;96321.44;10572639;27;20031;-30
2022/09/24 07:31:20;;;;;;;6.83;4.37;;;;;;;18.93;58.54;96332.41;10598283;27;20044;-29
2022/09/24 07:36:20;;;;;;;2.77;2.07;;;;;;;18.91;57.67;96331.56;10591308;27;20032;-28
2022/09/24 07:41:21;;;;;;;3.78;1.75;;;;;;;18.90;57.40;96334.94;10585824;27;20561;-29
2022/09/24 07:46:21;;;;;;;4.17;2.30;;;;;;;18.85;57.13;96318.94;10598560;27;20106;-29
2022/09/24 07:51:23;;;;;;;4.47;2.47;;;;;;;18.84;58.98;96329.94;10591413;27;20042;-28
2022/09/24 07:56:24;;;;;;;6.38;3.08;;;;;;;18.80;60.05;96333.31;10594915;27;20293;-30
2022/09/24 08:01:25;;;;;;;6.18;3.50;;;;;;;18.81;59.87;96329.94;10587143;27;20119;-29
2022/09/24 08:06:25;;;;;;;3.88;2.78;;;;;;;18.82;59.72;96336.72;10583451;27;20027;-29
2022/09/24 08:11:26;;;;;;;4.57;2.75;;;;;;;18.92;59.95;96338.31;10583121;27;20035;-29
2022/09/24 08:16:27;;;;;;;4.63;2.45;;;;;;;18.95;59.91;96333.22;10594635;27;20471;-29
2022/09/24 08:21:28;;;;;;;6.32;2.50;;;;;;;18.80;59.89;96340.94;10591870;27;20480;-29
2022/09/24 08:26:28;;;;;;;6.50;2.33;;;;;;;18.88;58.82;96341.72;10579659;27;20411;-29
2022/09/24 08:31:30;;;;;;;6.50;3.23;;;;;;;18.82;60.39;96329.13;10591667;27;20546;-31
2022/09/24 08:36:30;;;;;;;9.18;3.60;;;;;;;18.82;60.37;96324.03;10594138;27;20070;-29
2022/09/24 08:41:48;;;;;;;11.57;3.00;;;;;;;18.73;60.65;96316.47;10587701;27;20087;-29
2022/09/24 08:52:32;;;;;;;4.93;2.65;;;;;;;18.77;59.62;96331.66;10576507;27;20039;-29
2022/09/24 08:57:43;;;;;;;6.40;3.45;;;;;;;18.91;61.16;96336.66;10587297;27;20528;-29
2022/09/24 09:02:56;;;;;;;6.35;3.60;;;;;;;18.88;59.95;96336.66;10578398;27;20511;-30
2022/09/24 09:08:01;;;;;;;4.85;2.75;;;;;;;18.77;60.48;96328.28;10581904;27;20106;-28
2022/09/24 09:13:22;;;;;;;4.97;3.75;;;;;;;18.82;60.46;96340.09;10587846;27;20141;-28
2022/09/24 09:18:31;;;;;;;3.80;3.10;;;;;;;18.77;60.83;96328.28;10589575;27;20075;-30
2022/09/24 09:23:45;;;;;;;5.10;2.72;;;;;;;18.83;59.65;96338.41;10570876;28;20508;-29
2022/09/24 09:28:46;;;;;;;6.43;4.63;;;;;;;18.80;60.50;96349.41;10597061;28;20027;-29
2022/09/24 09:34:17;;;;;;;6.82;3.75;;;;;;;18.78;60.59;96347.72;10583382;28;20039;-29
2022/09/24 09:39:36;;;;;;;8.65;3.30;;;;;;;18.79;61.51;96327.44;10590125;28;20031;-29
2022/09/24 09:44:41;;;;;;;4.35;3.25;;;;;;;18.90;61.25;96345.09;10576147;28;20487;-29
2022/09/24 09:49:42;;;;;;;4.22;2.95;;;;;;;18.90;60.11;96337.47;10582905;28;20115;-29
2022/09/24 09:54:43;;;;;;;3.33;2.92;;;;;;;18.82;60.50;96331.66;10596246;28;20031;-29
2022/09/24 09:59:53;;;;;;;4.50;3.15;;;;;;;18.79;61.11;96340.13;10582271;28;20023;-29
2022/09/24 10:04:57;;;;;;;5.97;3.28;;;;;;;18.80;60.89;96333.31;10591960;28;20080;-29
2022/09/24 10:10:14;;;;;;;8.10;2.85;;;;;;;18.79;61.15;96336.72;10579637;28;20543;-29
2022/09/24 10:15:18;;;;;;;4.65;2.90;;;;;;;18.81;60.58;96325.72;10588093;28;20054;-29
2022/09/24 10:20:28;;;;;;;3.80;2.80;;;;;;;18.83;60.44;96328.25;10573400;28;20039;-30
2022/09/24 10:25:31;;;;;;;6.57;2.40;;;;;;;18.74;60.14;96308.03;10580237;28;20047;-30
2022/09/24 10:30:34;;;;;;;5.15;2.75;;;;;;;18.89;61.11;96325.66;10589903;27;20482;-29
2022/09/24 10:35:37;;;;;;;3.47;2.90;;;;;;;18.94;60.49;96321.38;10590472;27;20030;-29
2022/09/24 10:40:39;;;;;;;4.25;2.60;;;;;;;18.90;59.78;96322.25;10583343;27;20471;-29
2022/09/24 10:45:56;;;;;;;4.28;2.55;;;;;;;18.85;59.86;96317.22;10592698;27;20084;-30
2022/09/24 10:51:17;;;;;;;3.40;2.50;;;;;;;18.87;59.91;96324.81;10575155;27;20040;-29
2022/09/24 10:56:40;;;;;;;2.75;2.28;;;;;;;18.81;59.83;96310.50;10594121;27;20066;-30
2022/09/24 11:02:08;;;;;;;3.17;2.30;;;;;;;18.85;60.03;96316.41;10598476;27;20047;-29
2022/09/24 11:07:28;;;;;;;3.70;2.25;;;;;;;18.81;60.01;96304.56;10585679;27;20122;-29
2022/09/24 11:12:35;;;;;;;4.82;2.75;;;;;;;18.83;59.66;96310.50;10593185;27;20042;-29
2022/09/24 11:17:45;;;;;;;5.72;3.08;;;;;;;18.92;61.03;96292.66;10596098;27;20520;-29
2022/09/24 11:23:01;;;;;;;10.88;3.40;;;;;;;18.88;61.83;96268.16;10575777;27;20039;-29
2022/09/24 11:28:10;;;;;;;3.65;2.53;;;;;;;18.88;60.13;96285.91;10579931;27;20027;-29
2022/09/24 11:33:31;;;;;;;4.22;2.30;;;;;;;18.88;60.06;96288.47;10572609;27;20107;-30
2022/09/24 11:38:53;;;;;;;5.53;3.13;;;;;;;18.85;59.96;96279.16;10572642;27;20551;-29
2022/09/24 11:44:05;;;;;;;6.57;2.90;;;;;;;18.87;59.27;96271.56;10580558;27;20122;-29
2022/09/24 11:49:27;;;;;;;5.32;2.58;;;;;;;18.86;59.17;96259.75;10587149;27;20038;-31
2022/09/24 11:54:42;;;;;;;5.47;2.75;;;;;;;18.89;58.54;96264.78;10592905;27;20205;-29
2022/09/24 11:59:57;;;;;;;8.93;2.53;;;;;;;18.88;58.46;96251.25;10586886;27;20055;-29
2022/09/24 12:05:14;;;;;;;7.93;3.97;;;;;;;18.94;60.71;96243.59;10571247;27;20130;-30
2022/09/24 12:10:36;;;;;;;6.82;3.80;;;;;;;19.01;61.72;96249.47;10579088;27;20130;-29
2022/09/24 12:15:47;;;;;;;5.63;3.50;;;;;;;18.98;60.95;96246.94;10586320;27;20039;-30
2022/09/24 12:20:50;;;;;;;4.13;2.90;;;;;;;18.93;59.50;96239.38;10593229;27;20387;-29
2022/09/24 12:25:52;;;;;;;6.85;4.47;;;;;;;18.94;60.18;96242.75;10581065;27;20040;-29
2022/09/24 12:36:26;;;;;;;6.28;3.63;;;;;;;18.93;59.99;96234.28;10569959;27;20080;-30
2022/09/24 12:41:33;;;;;;;10.02;4.00;;;;;;;18.94;58.84;96232.59;10588387;27;20074;-30
2022/09/24 12:46:59;;;;;;;;;;;;;;;18.93;59.46;96234.28;10582591;27;20046;-29
2022/09/24 12:52:16;;;;;;;9.25;4.50;;;;;;;18.96;60.98;96235.97;10571459;27;20333;-30
2022/09/24 12:57:21;;;;;;;;;;;;;;;19.02;62.31;96225.75;10571105;27;20034;-29
2022/09/24 13:02:27;;;;;;;10.52;4.38;;;;;;;18.96;60.93;96219.06;10587588;27;20409;-31
2022/09/24 13:07:29;;;;;;;;;;;;;;;18.95;60.24;96216.53;10598086;27;20027;-31
2022/09/24 13:12:32;;;;;;;10.30;2.97;;;;;;;18.93;59.72;96215.72;10587677;27;19911;-29
2022/09/24 13:17:34;;;;;;;4.85;3.08;;;;;;;18.92;59.88;96216.56;10578956;27;20121;-29
2022/09/24 13:22:36;;;;;;;10.63;2.72;;;;;;;18.89;59.42;96206.44;10584110;28;20038;-30
2022/09/24 13:27:40;;;;;;;6.82;3.10;;;;;;;18.93;59.31;96203.03;10578964;28;20417;-29
2022/09/24 13:33:03;;;;;;;3.85;2.70;;;;;;;18.91;59.00;96190.34;10587483;28;20039;-30
2022/09/24 13:38:15;;;;;;;5.70;3.10;;;;;;;18.93;59.08;96195.41;10578450;28;20044;-30
2022/09/24 13:43:37;;;;;;;10.55;4.20;;;;;;;19.00;61.74;96192.78;10575530;28;20039;-30
2022/09/24 13:48:43;;;;;;;6.78;3.38;;;;;;;19.00;61.36;96192.78;10583190;28;20402;-30
2022/09/24 13:53:52;;;;;;;5.63;3.30;;;;;;;18.97;60.52;96189.44;10572550;28;20034;-29
2022/09/24 13:59:08;;;;;;;7.28;2.90;;;;;;;18.96;59.97;96177.63;10569586;28;20107;-29
2022/09/24 14:04:20;;;;;;;10.77;5.43;;;;;;;18.92;59.62;96164.13;10569677;28;20534;-30
2022/09/24 14:09:38;;;;;;;24.88;14.05;;;;;;;18.95;60.99;96168.34;10568312;27;20036;-30
2022/09/24 14:14:43;;;;;;;64.57;40.67;;;;;;;18.93;60.09;96172.59;10562798;27;20114;-30
2022/09/24 14:19:43;;;;;;;75.88;49.13;;;;;;;18.93;60.45;96175.13;10570291;27;20039;-29
2022/09/24 14:24:55;;;;;;;72.68;44.75;;;;;;;18.94;60.93;96174.25;10568339;28;20048;-29
2022/09/24 14:29:58;;;;;;;61.38;41.35;;;;;;;19.02;61.78;96163.16;10580829;27;20032;-29
2022/09/24 14:35:06;;;;;;;50.38;32.45;;;;;;;19.01;61.80;96161.50;10590383;27;20437;-29
2022/09/24 14:40:19;;;;;;;43.75;27.33;;;;;;;18.97;60.61;96161.53;10568341;27;20032;-30
2022/09/24 14:45:24;;;;;;;35.58;21.52;;;;;;;18.95;60.55;96153.13;10570144;27;20028;-30
2022/09/24 14:50:38;;;;;;;27.58;18.17;;;;;;;18.95;60.59;96155.66;10562741;27;20334;-30
2022/09/24 14:55:41;;;;;;;26.92;17.13;;;;;;;18.94;60.69;96164.97;10563089;27;20038;-29
2022/09/24 15:00:54;;;;;;;24.02;15.52;;;;;;;18.94;60.23;96159.03;10576148;27;20042;-30
2022/09/24 15:06:15;;;;;;;23.80;13.52;;;;;;;18.92;60.50;96168.38;10561661;27;20039;-29
2022/09/24 15:11:16;;;;;;;19.40;12.73;;;;;;;18.87;60.31;96150.69;10579370;27;20036;-30
2022/09/24 15:16:36;;;;;;;16.63;10.63;;;;;;;18.97;61.49;96159.00;10553495;27;20573;-31
2022/09/24 15:21:36;;;;;;;19.23;11.82;;;;;;;19.05;61.44;96162.28;10584385;27;20036;-30
2022/09/24 15:26:40;;;;;;;21.77;12.20;;;;;;;19.00;61.17;96161.53;10570399;28;20039;-30
2022/09/24 15:31:41;;;;;;;20.38;12.18;;;;;;;18.97;60.61;96170.00;10578862;27;20038;-31
2022/09/24 15:36:41;;;;;;;19.23;12.20;;;;;;;18.98;60.56;96180.97;10585947;27;20028;-29
2022/09/24 15:41:42;;;;;;;14.67;10.00;;;;;;;18.99;60.36;96172.53;10560429;28;20043;-30
2022/09/24 15:46:42;;;;;;;14.27;10.00;;;;;;;18.95;60.58;96164.13;10534171;28;20533;-29
2022/09/24 15:51:43;;;;;;;14.40;9.07;;;;;;;18.91;60.31;96146.41;10536035;28;20406;-29
2022/09/24 15:56:45;;;;;;;14.27;8.60;;;;;;;18.97;60.06;96159.00;10535291;28;20024;-30
2022/09/24 16:01:48;;;;;;;13.73;8.25;;;;;;;18.98;59.88;96160.69;10535107;28;20673;-29
2022/09/24 16:06:48;;;;;;;10.40;7.38;;;;;;;19.02;61.88;96157.28;10534825;28;20044;-29
2022/09/24 16:11:49;;;;;;;15.30;7.93;;;;;;;19.05;61.59;96157.22;10555374;28;20390;-31
2022/09/24 16:16:49;;;;;;;11.73;7.37;;;;;;;19.03;61.00;96175.03;10576294;28;20024;-30
2022/09/24 16:21:51;;;;;;;16.25;7.82;;;;;;;19.03;60.74;96167.41;10566864;28;20039;-30
2022/09/24 16:26:52;;;;;;;11.45;6.68;;;;;;;19.01;60.89;96170.81;10534599;28;20032;-30
2022/09/24 16:31:52;;;;;;;13.95;8.32;;;;;;;18.96;60.79;96173.41;10534196;28;20503;-31
2022/09/24 16:36:53;;;;;;;12.73;7.23;;;;;;;18.98;60.68;96175.91;10533256;28;20035;-30
2022/09/24 16:41:53;;;;;;;10.15;7.15;;;;;;;18.99;61.18;96183.50;10533811;28;20048;-29
2022/09/24 16:46:53;;;;;;;10.85;6.43;;;;;;;18.91;61.16;96184.47;10533630;28;20039;-31
2022/09/24 16:51:54;;;;;;;10.83;6.37;;;;;;;19.03;62.63;96185.16;10533581;28;20040;-30
2022/09/24 16:56:56;;;;;;;12.23;6.57;;;;;;;19.08;62.79;96192.72;10533516;28;20032;-29
2022/09/24 17:01:57;;;;;;;14.75;6.15;;;;;;;19.04;61.68;96191.91;10533192;28;20403;-29
2022/09/24 17:06:57;;;;;;;7.35;5.93;;;;;;;19.02;61.23;96190.25;10532525;28;20032;-30
2022/09/24 17:11:58;;;;;;;7.80;5.60;;;;;;;19.02;61.40;96198.69;10540480;28;20046;-29
2022/09/24 17:16:59;;;;;;;13.88;6.18;;;;;;;19.00;60.99;96195.31;10532530;28;20051;-30
2022/09/24 17:22:00;;;;;;;8.87;6.37;;;;;;;18.99;60.88;96202.97;10539765;28;20541;-29
2022/09/24 17:27:00;;;;;;;9.93;5.97;;;;;;;19.00;60.63;96208.00;10550234;28;20523;-30
2022/09/24 17:32:01;;;;;;;8.90;5.60;;;;;;;18.97;61.51;96205.53;10567486;28;20028;-30
2022/09/24 17:37:01;;;;;;;12.13;5.45;;;;;;;19.06;63.19;96204.56;10564797;28;20039;-29
2022/09/24 17:42:02;;;;;;;10.87;6.23;;;;;;;19.07;63.54;96207.09;10548888;28;20109;-31
2022/09/24 17:47:03;;;;;;;8.32;5.43;;;;;;;19.01;62.30;96224.09;10578211;28;20281;-30
2022/09/24 17:52:04;;;;;;;8.70;5.30;;;;;;;19.01;61.50;96237.59;10565502;28;20633;-31
2022/09/24 17:57:04;;;;;;;6.60;4.90;;;;;;;19.03;61.58;96245.19;10564271;28;20036;-30
2022/09/24 18:02:05;;;;;;;8.77;5.17;;;;;;;19.01;61.09;96241.84;10573688;28;20027;-30
2022/09/24 18:07:05;;;;;;;7.40;4.88;;;;;;;19.02;61.29;96253.66;10569144;27;20553;-30
2022/09/24 18:12:06;;;;;;;11.53;5.23;;;;;;;19.01;60.97;96252.00;10576273;28;20043;-29
2022/09/24 18:17:07;;;;;;;6.13;4.43;;;;;;;18.97;60.80;96266.41;10576693;28;20039;-29
2022/09/24 18:22:08;;;;;;;9.40;6.32;;;;;;;19.03;62.62;96266.34;10566596;28;20293;-29
2022/09/24 18:27:08;;;;;;;7.78;4.82;;;;;;;19.09;62.51;96270.53;10570576;28;20031;-30
2022/09/24 18:32:09;;;;;;;6.07;4.53;;;;;;;19.04;61.44;96272.25;10573864;28;20039;-30
2022/09/24 18:37:09;;;;;;;7.50;4.80;;;;;;;19.01;61.08;96274.81;10566164;28;20289;-29
2022/09/24 18:42:09;;;;;;;10.07;4.40;;;;;;;19.02;61.02;96279.03;10571321;28;20063;-29
2022/09/24 18:47:13;;;;;;;9.50;4.90;;;;;;;19.02;61.14;96271.44;10576322;28;20289;-30
2022/09/24 18:52:13;;;;;;;8.32;5.20;;;;;;;19.02;61.00;96273.97;10558228;28;20067;-30
2022/09/24 18:57:14;;;;;;;8.93;4.53;;;;;;;18.99;60.93;96282.44;10547503;28;20043;-29
2022/09/24 19:02:14;;;;;;;11.27;4.90;;;;;;;18.97;60.74;96278.22;10576011;28;20176;-30
2022/09/24 19:07:14;;;;;;;5.20;3.77;;;;;;;19.02;61.73;96284.13;10568172;28;20042;-30
2022/09/24 19:12:15;;;;;;;6.23;4.30;;;;;;;19.10;62.58;96295.03;10564788;28;20346;-29
2022/09/24 19:17:15;;;;;;;5.73;3.80;;;;;;;19.03;61.31;96279.03;10574850;28;20051;-30
2022/09/24 19:22:15;;;;;;;7.00;4.13;;;;;;;19.02;61.23;96269.72;10569727;28;20031;-29
2022/09/24 19:27:16;;;;;;;7.43;4.53;;;;;;;19.00;61.24;96276.50;10567796;28;20040;-29
2022/09/24 19:32:16;;;;;;;6.40;4.37;;;;;;;19.02;61.32;96279.03;10571636;28;20652;-30
2022/09/24 19:37:16;;;;;;;8.67;4.73;;;;;;;19.02;61.63;96279.03;10563479;28;20041;-30
2022/09/24 19:42:17;;;;;;;10.80;4.30;;;;;;;19.01;61.69;96277.38;10571047;27;20044;-29
2022/09/24 19:47:18;;;;;;;12.02;4.53;;;;;;;19.00;61.54;96284.13;10573872;28;20031;-31
2022/09/24 19:52:18;;;;;;;10.45;4.25;;;;;;;19.04;62.85;96284.94;10572554;28;20057;-31
2022/09/24 19:57:19;;;;;;;6.38;4.50;;;;;;;19.09;63.00;96285.75;10571980;28;20092;-29
2022/09/24 20:02:19;;;;;;;7.30;4.30;;;;;;;19.05;62.03;96279.00;10573806;28;20524;-29
2022/09/24 20:07:19;;;;;;;7.47;4.67;;;;;;;19.02;61.73;96273.97;10556149;28;20375;-29
2022/09/24 20:12:20;;;;;;;7.80;4.20;;;;;;;19.03;61.41;96276.50;10566626;28;20044;-29
2022/09/24 20:17:21;;;;;;;5.68;4.18;;;;;;;19.02;61.40;96268.91;10572069;28;20064;-30
2022/09/24 20:22:21;;;;;;;7.30;4.83;;;;;;;19.01;61.71;96272.28;10566322;28;20043;-30
2022/09/24 20:32:43;;;;;;;8.15;4.15;;;;;;;18.99;61.78;96268.94;10556952;27;20035;-30
2022/09/24 20:37:43;;;;;;;5.68;4.10;;;;;;;19.01;61.65;96272.28;10571809;27;20111;-29
2022/09/24 20:42:43;;;;;;;9.57;4.68;;;;;;;19.05;62.94;96273.94;10586928;27;20039;-30
2022/09/24 20:47:45;;;;;;;8.63;4.33;;;;;;;19.10;62.93;96287.44;10580169;27;20060;-30
2022/09/24 20:52:45;;;;;;;5.68;3.53;;;;;;;19.04;62.09;96277.31;10573026;27;20042;-30
2022/09/24 20:57:47;;;;;;;5.67;3.53;;;;;;;19.06;61.54;96290.84;10584347;27;20034;-31
2022/09/24 21:02:48;;;;;;;5.63;4.20;;;;;;;19.06;61.36;96288.28;10577766;27;20288;-29
2022/09/24 21:07:48;;;;;;;4.73;3.30;;;;;;;19.05;61.41;96296.75;10572617;28;20368;-30
2022/09/24 21:12:49;;;;;;;7.13;3.60;;;;;;;19.02;61.32;96279.88;10553002;28;20036;-30
2022/09/24 21:17:50;;;;;;;6.60;4.10;;;;;;;19.03;61.32;96288.34;10532149;28;20040;-31
2022/09/24 21:22:50;;;;;;;8.80;4.20;;;;;;;19.02;60.98;96290.00;10536977;28;20286;-29
2022/09/24 21:27:52;;;;;;;10.03;3.83;;;;;;;19.02;61.37;96284.94;10532884;28;20273;-31
2022/09/24 21:32:52;;;;;;;7.55;3.75;;;;;;;19.03;63.05;96283.25;10532917;28;20028;-30
2022/09/24 21:37:52;;;;;;;7.33;3.83;;;;;;;19.04;62.24;96272.25;10532489;28;20412;-29
2022/09/24 21:42:52;;;;;;;7.47;3.77;;;;;;;19.01;61.61;96278.19;10554366;28;20118;-30
2022/09/24 21:47:53;;;;;;;5.57;3.80;;;;;;;19.01;61.49;96273.13;10574624;28;20042;-29
2022/09/24 21:52:54;;;;;;;7.95;4.07;;;;;;;19.03;61.18;96278.19;10544524;28;20032;-30
2022/09/24 21:57:54;;;;;;;5.67;3.43;;;;;;;19.03;61.32;96280.72;10532243;28;20043;-29
2022/09/24 22:02:54;;;;;;;3.97;3.23;;;;;;;19.02;61.19;96284.13;10532001;28;20036;-31
2022/09/24 22:07:55;;;;;;;5.33;3.37;;;;;;;19.00;61.09;96273.16;10531723;28;20092;-30
2022/09/24 22:12:56;;;;;;;6.23;2.90;;;;;;;19.01;61.16;96279.91;10532023;28;20123;-30
2022/09/24 22:17:56;;;;;;;6.10;3.40;;;;;;;18.99;61.58;96284.97;10532147;28;20362;-30
2022/09/24 22:22:56;;;;;;;6.97;3.50;;;;;;;19.03;62.72;96278.19;10567994;28;20042;-30
2022/09/24 22:27:57;;;;;;;6.87;3.73;;;;;;;19.06;62.19;96275.59;10553375;28;20028;-29
2022/09/24 22:32:57;;;;;;;6.83;3.90;;;;;;;19.02;61.07;96273.97;10550870;27;20046;-30
2022/09/24 22:37:57;;;;;;;5.00;3.27;;;;;;;19.01;61.16;96277.38;10570720;28;20067;-30
2022/09/24 22:42:58;;;;;;;6.77;3.13;;;;;;;18.99;61.21;96279.09;10549500;28;20483;-30
2022/09/24 22:47:58;;;;;;;4.23;3.43;;;;;;;19.01;61.17;96282.44;10545561;28;20099;-30
2022/09/24 22:53:00;;;;;;;4.83;2.87;;;;;;;19.00;60.80;96270.63;10552444;28;20147;-30
2022/09/24 22:58:01;;;;;;;8.27;3.30;;;;;;;19.01;61.34;96272.28;10538460;28;20028;-29
2022/09/24 23:03:02;;;;;;;4.67;3.07;;;;;;;19.00;61.02;96257.94;10538159;28;20085;-30
2022/09/24 23:08:03;;;;;;;6.57;3.35;;;;;;;19.00;62.03;96260.47;10565529;28;20106;-29
2022/09/24 23:13:03;;;;;;;6.67;3.20;;;;;;;19.02;62.44;96249.44;10555599;28;20115;-30
2022/09/24 23:18:03;;;;;;;5.97;3.42;;;;;;;19.06;62.04;96250.22;10537303;28;20442;-30
2022/09/24 23:23:04;;;;;;;5.90;3.43;;;;;;;19.04;60.91;96252.81;10539815;28;20028;-29
2022/09/24 23:28:04;;;;;;;6.33;3.03;;;;;;;19.02;60.91;96253.66;10536587;28;20036;-29
2022/09/24 23:33:04;;;;;;;3.17;2.23;;;;;;;19.00;60.99;96248.59;10570038;27;20114;-30
2022/09/24 23:38:05;;;;;;;4.43;2.80;;;;;;;18.99;61.06;96241.84;10568466;27;20416;-29
2022/09/24 23:43:05;;;;;;;4.65;2.75;;;;;;;18.99;61.03;96253.72;10561653;27;20036;-29
2022/09/24 23:48:06;;;;;;;4.10;2.67;;;;;;;18.98;61.34;96246.94;10621023;27;20031;-30
2022/09/24 23:53:06;;;;;;;5.57;2.63;;;;;;;18.98;61.18;96262.16;10545175;27;20112;-30
2022/09/24 23:58:07;;;;;;;5.67;3.23;;;;;;;18.99;62.14;96254.53;10535704;28;20462;-30
